עמוד ראשי
METAR-TAF:

METAR-TAF

שדות תעופה :

Cobija, בוליביה

קו רוחב: 11-02S, קו אורך: 068-47W, גובה: 235מטר

תצפית מזג אוויר נוכחית

הדו"ח נערך לפני 4 שעות ו 25דקות, בשעה 23:00 UTC
רוח 2קשר עם כיוונים משתנים
טמפרטורת 30 צלסיוס
לחות 55%
לחץ 1013 hPa
ראות 10 קילומטר או יותר

METAR: SLCO 242300Z VRB02KT 9999 NSC 30/20 Q1013

זמן: 23:25 (03:25 UTC)

תחזית

הדו"ח נערך לפני 4 שעות ו 55דקות, בשעה 22:30 UTC
תחזית בתוקף מ 25 ב 00 UTC עד 25 ב 24 UTC
רוח קשר מכיוון צפון
ראות 10 קילומטר או יותר
יעשה מ
25 ב 12 UTC עד 25 ב 15 UTC
רוח 10קשר מכיוון צפון

TAF: SLCO 242230Z 2500/2524 00000KT 9999 NSC TX36/2519Z TN20/2511Z BECMG 2512/2515 35010KT

תצפיות ותחזיות מזג אוויר לגבי יותר מ- 4,000 שדות תעופה ברחבי העולם. דוחות METAR ו- TAF.

התחנות הזמינות מסומנות בנקודות צהובות ואדומות על גבי המפה.

העבר את העכבר לנקודה הצבעונית על מנת לראות את שם התחנה.

לאחר מכן, לחץ כדי לראות את תוכן ואת תחזיות מזג האוויר.

כדי לשנות את המפה: לחץ על הכפתורים הירוקים עם הפלוס השחור כדי להתקרב; על הכפתור הירוק עם המקף כדי להתרחק; או בחיצים הירוקים למפות סמוכות.


METAR-TAF: